createdAt,value
2023-03-22T00:01:05.770Z,85711.75
2023-03-22T00:03:31.947Z,85712.91
2023-03-22T00:05:58.106Z,85715.69
2023-03-22T00:08:24.223Z,85712.34
2023-03-22T00:10:50.344Z,85710.44
2023-03-22T00:13:16.662Z,85714.06
2023-03-22T00:15:42.834Z,85706.31
2023-03-22T00:18:08.980Z,85708.13
2023-03-22T00:20:35.086Z,85712.41
2023-03-22T00:23:01.216Z,85708.91
2023-03-22T00:25:27.317Z,85708.50
2023-03-22T00:27:53.440Z,85715.13
2023-03-22T00:30:19.586Z,85717.47
2023-03-22T00:32:45.703Z,85716.63
2023-03-22T00:35:11.809Z,85718.19
2023-03-22T00:37:37.895Z,85720.06
2023-03-22T00:40:03.984Z,85724.44
2023-03-22T00:42:30.111Z,85713.44
2023-03-22T00:44:56.219Z,85711.19
2023-03-22T00:47:22.305Z,85707.63
2023-03-22T00:49:48.388Z,85697.06
2023-03-22T00:52:14.492Z,85698.72
2023-03-22T00:54:40.620Z,85698.25
2023-03-22T00:57:06.713Z,85685.22
2023-03-22T00:59:32.844Z,85687.34
2023-03-22T01:01:58.951Z,85678.09
2023-03-22T01:04:25.050Z,85678.00
2023-03-22T01:06:51.150Z,85660.75
2023-03-22T01:09:17.294Z,85668.34
2023-03-22T01:11:43.405Z,85654.81
2023-03-22T01:14:09.521Z,85664.91
2023-03-22T01:16:35.638Z,85652.38
2023-03-22T01:19:01.799Z,85644.88
2023-03-22T01:21:27.962Z,85645.06
2023-03-22T01:23:54.077Z,85642.97
2023-03-22T01:26:20.158Z,85631.81
2023-03-22T01:28:46.288Z,85634.63
2023-03-22T01:31:12.423Z,85629.91
2023-03-22T01:33:38.550Z,85630.88
2023-03-22T01:36:04.665Z,85633.66
2023-03-22T01:38:30.774Z,85624.66
2023-03-22T01:40:56.906Z,85618.28
2023-03-22T01:43:23.038Z,85616.22
2023-03-22T01:45:49.182Z,85613.56
2023-03-22T01:48:15.512Z,85613.09
2023-03-22T01:50:41.901Z,85619.28
2023-03-22T01:53:08.120Z,85614.97
2023-03-22T01:55:34.245Z,85611.09
2023-03-22T01:58:00.349Z,85606.84
2023-03-22T02:00:26.456Z,85603.31
2023-03-22T02:02:52.625Z,85606.16
2023-03-22T02:05:18.784Z,85604.28
2023-03-22T02:07:44.917Z,85603.84
2023-03-22T02:10:11.034Z,85591.09
2023-03-22T02:12:37.134Z,85589.13
2023-03-22T02:15:03.226Z,85584.88
2023-03-22T02:17:29.329Z,85587.22
2023-03-22T02:19:55.438Z,85584.66
2023-03-22T02:22:21.565Z,85581.06
2023-03-22T02:24:47.711Z,85577.31
2023-03-22T02:27:13.818Z,85580.41
2023-03-22T02:29:39.915Z,85589.19
2023-03-22T02:32:06.016Z,85579.59
2023-03-22T02:34:32.124Z,85593.25
2023-03-22T02:36:58.323Z,85591.47
2023-03-22T02:39:24.443Z,85597.53
2023-03-22T02:41:50.560Z,85593.75
2023-03-22T02:44:16.665Z,85595.41
2023-03-22T02:46:42.846Z,85602.47
2023-03-22T02:49:09.014Z,85599.47
2023-03-22T02:51:35.128Z,85596.53
2023-03-22T02:54:01.388Z,85606.94
2023-03-22T02:56:27.520Z,85608.31
2023-03-22T02:58:53.634Z,85612.28
2023-03-22T03:01:19.862Z,85605.63
2023-03-22T03:03:46.021Z,85608.34
2023-03-22T03:06:12.120Z,85614.75
2023-03-22T03:08:38.236Z,85606.41
2023-03-22T03:11:04.349Z,85604.16
2023-03-22T03:13:30.450Z,85595.34
2023-03-22T03:15:56.605Z,85596.34
2023-03-22T03:18:22.759Z,85605.63
2023-03-22T03:20:48.882Z,85599.84
2023-03-22T03:23:14.976Z,85591.56
2023-03-22T03:25:41.108Z,85591.53
2023-03-22T03:28:07.259Z,85586.44
2023-03-22T03:30:33.416Z,85595.38
2023-03-22T03:32:59.528Z,85588.06
2023-03-22T03:35:25.671Z,85594.88
2023-03-22T03:37:51.767Z,85602.09
2023-03-22T03:40:17.886Z,85596.56
2023-03-22T03:42:43.994Z,85592.34
2023-03-22T03:45:10.139Z,85590.88
2023-03-22T03:47:36.225Z,85590.56
2023-03-22T03:50:02.350Z,85595.19
2023-03-22T03:52:28.444Z,85596.75
2023-03-22T03:54:54.684Z,85591.66
2023-03-22T03:57:20.803Z,85606.75
2023-03-22T03:59:46.898Z,85614.53
2023-03-22T04:02:13.019Z,85614.75
2023-03-22T04:04:39.183Z,85616.09
2023-03-22T04:07:05.323Z,85616.03
2023-03-22T04:09:31.432Z,85615.19
2023-03-22T04:11:57.534Z,85612.84
2023-03-22T04:14:23.674Z,85609.69
2023-03-22T04:16:49.819Z,85616.78
2023-03-22T04:19:15.984Z,85613.31
2023-03-22T04:21:42.091Z,85610.94
2023-03-22T04:24:08.175Z,85607.03
2023-03-22T04:26:34.285Z,85610.41
2023-03-22T04:29:00.381Z,85612.59
2023-03-22T04:31:26.542Z,85617.97
2023-03-22T04:33:52.697Z,85603.78
2023-03-22T04:36:18.815Z,85610.91
2023-03-22T04:38:44.938Z,85611.28
2023-03-22T04:41:11.044Z,85611.97
2023-03-22T04:43:37.154Z,85609.19
2023-03-22T04:46:03.370Z,85603.44
2023-03-22T04:48:29.498Z,85607.38
2023-03-22T04:50:55.608Z,85609.00
2023-03-22T04:53:21.739Z,85605.44
2023-03-22T04:55:48.090Z,85600.94
2023-03-22T04:58:14.187Z,85604.22
2023-03-22T05:00:40.485Z,85595.69
2023-03-22T05:03:06.755Z,85599.22
2023-03-22T05:05:32.891Z,85600.25
2023-03-22T05:07:58.990Z,85593.50
2023-03-22T05:10:25.072Z,85597.41
2023-03-22T05:12:51.171Z,85601.78
2023-03-22T05:15:17.266Z,85597.81
2023-03-22T05:17:43.371Z,85599.00
2023-03-22T05:20:09.474Z,85602.59
2023-03-22T05:22:35.589Z,85609.63
2023-03-22T05:25:01.744Z,85599.53
2023-03-22T05:27:27.833Z,85605.53
2023-03-22T05:29:53.949Z,85610.75
2023-03-22T05:32:20.115Z,85606.00
2023-03-22T05:34:46.203Z,85595.69
2023-03-22T05:37:12.347Z,85595.78
2023-03-22T05:39:38.501Z,85600.53
2023-03-22T05:42:04.584Z,85605.84
2023-03-22T05:44:30.675Z,85603.78
2023-03-22T05:46:56.826Z,85602.34
2023-03-22T05:49:22.969Z,85603.88
2023-03-22T05:51:49.087Z,85606.53
2023-03-22T05:54:15.196Z,85610.72
2023-03-22T05:56:41.321Z,85611.72
2023-03-22T05:59:07.560Z,85612.41
2023-03-22T06:01:33.723Z,85617.94
2023-03-22T06:03:59.874Z,85616.91
2023-03-22T06:06:25.981Z,85617.94
2023-03-22T06:08:52.104Z,85620.66
2023-03-22T06:11:18.196Z,85618.03
2023-03-22T06:13:44.292Z,85619.47
2023-03-22T06:16:10.450Z,85622.06
2023-03-22T06:18:36.649Z,85623.66
2023-03-22T06:21:02.764Z,85628.22
2023-03-22T06:23:28.863Z,85627.03
2023-03-22T06:25:54.975Z,85625.34
2023-03-22T06:28:21.084Z,85635.72
2023-03-22T06:30:47.219Z,85636.41
2023-03-22T06:33:13.331Z,85631.44
2023-03-22T06:35:39.512Z,85624.13
2023-03-22T06:38:05.764Z,85620.38
2023-03-22T06:40:31.887Z,85628.47
2023-03-22T06:42:58.721Z,85623.09
2023-03-22T06:45:25.930Z,85619.25
2023-03-22T06:47:52.083Z,85614.84
2023-03-22T06:50:18.222Z,85619.25
2023-03-22T06:52:44.433Z,85612.59
2023-03-22T06:55:10.553Z,85609.63
2023-03-22T06:57:36.744Z,85609.91
2023-03-22T07:00:02.834Z,85604.50
2023-03-22T07:02:28.921Z,85605.00
2023-03-22T07:04:55.003Z,85606.66
2023-03-22T07:07:21.250Z,85609.06
2023-03-22T07:09:47.392Z,85611.94
2023-03-22T07:12:13.515Z,85598.94
2023-03-22T07:14:39.816Z,85606.25
2023-03-22T07:17:05.947Z,85601.13
2023-03-22T07:19:32.363Z,85603.03
2023-03-22T07:21:58.485Z,85610.16
2023-03-22T07:24:24.586Z,85608.78
2023-03-22T07:26:50.714Z,85608.09
2023-03-22T07:29:16.819Z,85614.25
2023-03-22T07:31:42.932Z,85617.34
2023-03-22T07:34:09.042Z,85609.81
2023-03-22T07:36:35.150Z,85611.91
2023-03-22T07:39:01.245Z,85610.44
2023-03-22T07:41:27.414Z,85620.59
2023-03-22T07:44:00.233Z,85614.34
2023-03-22T07:46:34.174Z,85613.75
2023-03-22T07:49:00.306Z,85611.72
2023-03-22T07:51:26.405Z,85607.06
2023-03-22T07:53:52.491Z,85612.50
2023-03-22T07:56:18.626Z,85613.31
2023-03-22T07:58:44.759Z,85617.94
2023-03-22T08:01:10.926Z,85618.50
2023-03-22T08:03:37.042Z,85623.72
2023-03-22T08:06:03.228Z,85624.69
2023-03-22T08:08:29.377Z,85625.88
2023-03-22T08:10:55.480Z,85626.63
2023-03-22T08:13:21.894Z,85621.19
2023-03-22T08:15:47.986Z,85623.31
2023-03-22T08:18:14.079Z,85622.84
2023-03-22T08:20:40.350Z,85620.94
2023-03-22T08:23:06.540Z,85613.94
2023-03-22T08:25:32.659Z,85622.50
2023-03-22T08:27:58.768Z,85615.69
2023-03-22T08:30:24.891Z,85616.50
2023-03-22T08:32:51.086Z,85610.63
2023-03-22T08:35:17.270Z,85612.59
2023-03-22T08:37:43.421Z,85614.47
2023-03-22T08:40:09.572Z,85604.66
2023-03-22T08:42:36.798Z,85606.38
2023-03-22T08:45:02.906Z,85599.44
2023-03-22T08:47:29.033Z,85589.31
2023-03-22T08:49:55.146Z,85593.84
2023-03-22T08:52:21.278Z,85580.97
2023-03-22T08:54:47.385Z,85579.34
2023-03-22T08:57:13.532Z,85577.69
2023-03-22T08:59:39.638Z,85570.25
2023-03-22T09:02:05.898Z,85563.81
2023-03-22T09:04:32.117Z,85561.25
2023-03-22T09:06:58.231Z,85554.97
2023-03-22T09:09:24.342Z,85546.59
2023-03-22T09:11:50.446Z,85537.88
2023-03-22T09:14:16.570Z,85525.44
2023-03-22T09:16:42.676Z,85536.25
2023-03-22T09:19:08.761Z,85535.16
2023-03-22T09:21:35.085Z,85530.00
2023-03-22T09:24:01.237Z,85534.84
2023-03-22T09:26:27.356Z,85537.94
2023-03-22T09:28:53.466Z,85544.66
2023-03-22T09:31:20.689Z,85550.53
2023-03-22T09:33:46.977Z,85555.50
2023-03-22T09:36:13.064Z,85560.75
2023-03-22T09:38:39.153Z,85559.47
2023-03-22T09:41:05.248Z,85555.56
2023-03-22T09:43:33.105Z,85562.66
2023-03-22T09:45:59.363Z,85575.72
2023-03-22T09:48:25.579Z,85572.28
2023-03-22T09:50:51.722Z,85566.91
2023-03-22T09:53:17.821Z,85569.22
2023-03-22T09:55:43.939Z,85563.66
2023-03-22T09:58:10.037Z,85564.22
2023-03-22T10:00:36.273Z,85575.94
2023-03-22T10:03:02.846Z,85574.81
2023-03-22T10:05:28.981Z,85571.84
2023-03-22T10:07:55.064Z,85580.38
2023-03-22T10:10:21.244Z,85566.03
2023-03-22T10:12:47.518Z,85575.75
2023-03-22T10:15:13.653Z,85570.88
2023-03-22T10:17:39.817Z,85573.00
2023-03-22T10:20:05.956Z,85568.75
2023-03-22T10:22:32.083Z,85561.91
2023-03-22T10:24:58.195Z,85571.47
2023-03-22T10:27:24.304Z,85570.31
2023-03-22T10:29:50.409Z,85565.28
2023-03-22T10:32:16.547Z,85561.13
2023-03-22T10:34:42.652Z,85556.16
2023-03-22T10:37:08.777Z,85549.88
2023-03-22T10:39:34.897Z,85560.38
2023-03-22T10:42:01.024Z,85546.03
2023-03-22T10:44:27.186Z,85548.44
2023-03-22T10:46:53.313Z,85547.41
2023-03-22T10:49:19.475Z,85553.94
2023-03-22T10:51:45.603Z,85541.97
2023-03-22T10:54:11.700Z,85540.72
2023-03-22T10:56:37.825Z,85545.81
2023-03-22T10:59:03.958Z,85544.38
2023-03-22T11:01:30.254Z,85542.97
2023-03-22T11:03:56.402Z,85537.94
2023-03-22T11:06:22.493Z,85534.84
2023-03-22T11:08:48.600Z,85523.22
2023-03-22T11:11:14.721Z,85523.94
2023-03-22T11:13:40.833Z,85520.91
2023-03-22T11:16:06.991Z,85507.84
2023-03-22T11:18:33.125Z,85495.84
2023-03-22T11:20:59.235Z,85495.66
2023-03-22T11:23:25.343Z,85490.69
2023-03-22T11:25:51.459Z,85485.53
2023-03-22T11:28:17.564Z,85494.25
2023-03-22T11:30:43.700Z,85495.88
2023-03-22T11:33:09.923Z,85491.91
2023-03-22T11:35:36.112Z,85489.25
2023-03-22T11:38:02.372Z,85491.22
2023-03-22T11:40:28.520Z,85488.75
2023-03-22T11:42:54.631Z,85493.56
2023-03-22T11:45:20.844Z,85496.16
2023-03-22T11:47:47.025Z,85485.13
2023-03-22T11:50:13.248Z,85497.34
2023-03-22T11:52:39.361Z,85484.22
2023-03-22T11:55:05.474Z,85489.25
2023-03-22T11:57:31.611Z,85499.13
2023-03-22T11:59:57.702Z,85494.16
2023-03-22T12:02:24.069Z,85482.00
2023-03-22T12:04:50.737Z,85481.09
2023-03-22T12:07:16.913Z,85480.75
2023-03-22T12:09:43.036Z,85477.44
2023-03-22T12:12:09.152Z,85472.22
2023-03-22T12:14:35.276Z,85470.75
2023-03-22T12:17:01.395Z,85472.69
2023-03-22T12:19:27.495Z,85466.81
2023-03-22T12:21:53.578Z,85461.53
2023-03-22T12:24:19.678Z,85465.22
2023-03-22T12:26:45.789Z,85468.13
2023-03-22T12:29:11.888Z,85464.09
2023-03-22T12:31:38.059Z,85465.16
2023-03-22T12:34:04.167Z,85455.13
2023-03-22T12:36:30.348Z,85457.03
2023-03-22T12:38:56.608Z,85450.34
2023-03-22T12:41:24.815Z,85448.03
2023-03-22T12:43:50.914Z,85450.66
2023-03-22T12:46:17.118Z,85449.38
2023-03-22T12:48:45.892Z,85440.97
2023-03-22T12:51:12.616Z,85445.88
2023-03-22T12:53:38.710Z,85438.03
2023-03-22T12:56:04.802Z,85431.28
2023-03-22T12:58:30.932Z,85437.47
2023-03-22T13:00:57.124Z,85429.38
2023-03-22T13:03:23.372Z,85427.59
2023-03-22T13:05:49.576Z,85416.84
2023-03-22T13:08:15.707Z,85425.50
2023-03-22T13:10:42.021Z,85417.53
2023-03-22T13:13:08.357Z,85421.03
2023-03-22T13:15:41.796Z,85426.66
2023-03-22T13:18:08.723Z,85417.69
2023-03-22T13:20:34.857Z,85416.28
2023-03-22T13:23:00.968Z,85410.63
2023-03-22T13:25:27.078Z,85416.47
2023-03-22T13:27:53.175Z,85417.50
2023-03-22T13:30:19.268Z,85412.00
2023-03-22T13:32:45.478Z,85405.34
2023-03-22T13:35:11.606Z,85406.59
2023-03-22T13:37:37.727Z,85410.84
2023-03-22T13:40:03.845Z,85415.22
2023-03-22T13:42:30.282Z,85410.81
2023-03-22T13:44:56.397Z,85413.47
2023-03-22T13:47:22.514Z,85406.22
2023-03-22T13:49:48.649Z,85407.28
2023-03-22T13:52:14.779Z,85403.63
2023-03-22T13:54:40.870Z,85399.03
2023-03-22T13:57:06.973Z,85406.97
2023-03-22T13:59:33.073Z,85393.22
2023-03-22T14:01:59.338Z,85393.72
2023-03-22T14:04:25.540Z,85391.44
2023-03-22T14:06:51.676Z,85401.34
2023-03-22T14:09:17.787Z,85390.06
2023-03-22T14:11:43.878Z,85392.53
2023-03-22T14:14:10.000Z,85389.72
2023-03-22T14:16:36.111Z,85385.63
2023-03-22T14:19:02.208Z,85386.50
2023-03-22T14:21:29.161Z,85390.59
